Mount Vernon, IL

7:16 PM CST on December 26, 2014 (GMT -0600)
Mount Vernon | Change Station
CLOSE
Current Station
Airport
Location: Mount Vernon,
Elevation: 479 ft
Nearby Weather Stations

Elev 479 ft 38.32 °N, 88.86 °W | Updated 21 minutes ago

Mostly Cloudy
Mostly Cloudy
46 °F
Feels Like 44 °F
N
5
Wind Variable Wind from SSW

Today
High -- | Low -- °F
--% Chance of Precip.
Yesterday
High -- | Low -- °F
Precip. -- in
7:11 AM 4:41 PM
Waxing Crescent, 31% visible
Pressure 30.11 in
Visibility 10.0 miles
Clouds Mostly Cloudy 3200 ft
Windchill 44 °F
Dew Point 39 °F
Humidity 76%
Rainfall 0.00 in
Snow Depth Not available.
UV 0 out of 12
Pollen 2.70 out of 12
Air Quality Not available.
Flu Activity Not available.
METAR KMVN 270055Z AUTO 20004KT 10SM BKN032 08/04 A3011 RMK AO1

More Conditions Fewer Conditions

Pressure 30.11 in
Visibility 10.0 miles
Clouds Mostly Cloudy 3200 ft
Windchill 44 °F
Dew Point 39 °F
Humidity 76%
Rainfall 0.00 in
Snow Depth Not available.
UV 0 out of 12
Pollen 2.70 out of 12
Air Quality Not available.
Flu Activity Not available.
METAR KMVN 270055Z AUTO 20004KT 10SM BKN032 08/04 A3011 RMK AO1

More Conditions Fewer Conditions

10-Day Weather Forecast

Almanac

Astronomy

Dec. 26, 2014 Rise Set
Actual Time
Civil Twilight
Nautical Twilight
Astronomical Twilight
Moon
Length of Visible Light
Length of Day
Tomorrow will be .
, % of the Moon is Illuminated

Today's Extremes

State Highs State Lows

Community

WunderPhotos

Upload Photos

1,780,803 photos uploaded!

WunderBlogs® & News

Nearby

Air Quality

  Air Quality AQ Index Pollutant
Not available.

Snow Depth

Station Depth Elevation

Earthquake Activity

City Distance Mag. Time & Date
Minimum magnitude displayed is 2.5.

Coastal Water Temperatures

Place Temperature

Nearby Weather Stations